Girolata — FPOD — position and weather

sailwx.info

Track history (hours):
 
Tides and Currents Weather Stations Pressure Air Temp Water Temp Dewpoint Dewpoint Depression Visibility Wind Speed Wind Dir Waves Ship Positions

Girolata

Last reported at 2019-Apr-25 08:34 UTC. Time now 2019-Apr-25 09:48 UTC.
Position N 43°19' E 005°22'.

Length 177 m; beam 27 m.

Type: Passenger vessel. MMSI: 226245000.

Date/timePositionNaut miles runAvg speedWind from/ knotsBaromVisibWave heightAir tempDewpointWater temp
2019-Apr-25 08:34N 43°19' E 005°22'0 0.0
2019-Apr-25 08:22N 43°19' E 005°22'0 0.0
2019-Apr-25 07:10N 43°19' E 005°22'0 0.0
2019-Apr-25 06:52N 43°19' E 005°22'0 0.0
2019-Apr-25 06:22N 43°19' E 005°22'0 0.0
2019-Apr-25 05:52N 43°19' E 005°22'0 0.0
2019-Apr-25 05:22N 43°19' E 005°22'0 0.0
2019-Apr-25 05:00N 43°19' E 005°22'1 1.7
2019-Apr-25 04:30N 43°18' E 005°21'611.0
2019-Apr-25 04:00N 43°13' E 005°18'10116.4
2019-Apr-24 21:52N 42°22' E 007°16'817.3
2019-Apr-24 21:22N 42°18' E 007°26'616.7
2019-Apr-24 21:00N 42°14' E 007°33'816.8
2019-Apr-24 20:31N 42°10' E 007°43'1116.8
2019-Apr-24 19:53N 42°05' E 007°55'616.5
2019-Apr-24 19:31N 42°02' E 008°02'816.8
2019-Apr-24 19:00N 41°58' E 008°12'816.1
2019-Apr-24 18:30N 41°54' E 008°22'1116.3
2019-Apr-24 17:51N 41°50' E 008°35'166 7.0
2019-Apr-23 18:02N 43°12' E 005°19'117.2
2019-Apr-23 18:00N 43°13' E 005°18'611.7
2019-Apr-23 17:30N 43°18' E 005°22'0 0.0
2019-Apr-23 05:17N 43°19' E 005°22'1 3.1
2019-Apr-23 05:00N 43°18' E 005°21'611.0
2019-Apr-23 04:30N 43°13' E 005°18'169 7.1
2019-Apr-22 04:49N 41°50' E 008°38'515.5
2019-Apr-22 04:30N 41°50' E 008°32'815.5
2019-Apr-22 04:00N 41°53' E 008°22'815.6
2019-Apr-22 03:30N 41°57' E 008°13'815.7
2019-Apr-22 03:00N 42°01' E 008°04'7415.4
2019-Apr-21 22:11N 42°37' E 006°36'6715.1
2019-Apr-21 17:44N 43°12' E 005°18'415.2
2019-Apr-21 17:30N 43°15' E 005°19'4 3.4
2019-Apr-21 16:19N 43°19' E 005°22'0 0.0
2019-Apr-21 15:19N 43°19' E 005°22'0 0.0
2019-Apr-21 14:16N 43°19' E 005°22'0 0.0
2019-Apr-21 13:19N 43°19' E 005°22'0 0.0
2019-Apr-21 09:37N 43°19' E 005°22'0 0.0
2019-Apr-21 07:55N 43°19' E 005°22'0 0.0
2019-Apr-21 07:13N 43°19' E 005°22'0 0.0
2019-Apr-21 05:55N 43°19' E 005°22'0 0.2
2019-Apr-21 05:31N 43°19' E 005°22'4 7.6
2019-Apr-21 05:00N 43°15' E 005°19'9415.2
2019-Apr-20 22:49N 42°26' E 007°08'514.9
2019-Apr-20 22:31N 42°24' E 007°13'814.7
2019-Apr-20 21:59N 42°20' E 007°23'915.0
2019-Apr-20 21:21N 42°16' E 007°34'515.0
2019-Apr-20 21:00N 42°13' E 007°40'1214.7
2019-Apr-20 20:10N 42°07' E 007°54'214.8
2019-Apr-20 20:01N 42°06' E 007°57'814.6
2019-Apr-20 19:29N 42°02' E 008°06'1614.8
2019-Apr-20 18:24N 41°53' E 008°24'615.0
2019-Apr-20 18:01N 41°50' E 008°31'12 0.9
2019-Apr-20 04:16N 41°55' E 008°45'410.7
2019-Apr-20 03:53N 41°52' E 008°42'615.0
2019-Apr-20 03:30N 41°49' E 008°35'816.1
2019-Apr-20 03:00N 41°52' E 008°25'917.2
2019-Apr-20 02:30N 41°56' E 008°15'917.3
2019-Apr-20 02:00N 42°01' E 008°05'1316.9
2019-Apr-20 01:15N 42°06' E 007°49'1517.1
2019-Apr-20 00:20N 42°13' E 007°31'1016.8
2019-Apr-19 23:46N 42°17' E 007°19'3518.6
2019-Apr-19 21:54N 42°32' E 006°37'7018.2
2019-Apr-19 18:04N 43°12' E 005°19'114.7
2019-Apr-19 18:00N 43°13' E 005°19'510.9
2019-Apr-19 17:30N 43°18' E 005°22'0 0.4
2019-Apr-19 16:27N 43°19' E 005°22'0 0.0
2019-Apr-19 15:57N 43°19' E 005°22'0 0.0
2019-Apr-19 15:15N 43°19' E 005°22'0 0.0
2019-Apr-19 14:33N 43°19' E 005°22'0 0.0
2019-Apr-19 14:15N 43°19' E 005°22'0 0.0
2019-Apr-19 13:57N 43°19' E 005°22'0 0.0
2019-Apr-19 13:03N 43°19' E 005°22'0 0.0
2019-Apr-19 12:33N 43°19' E 005°22'0 0.0
2019-Apr-19 11:51N 43°19' E 005°22'0 0.0
2019-Apr-19 10:51N 43°19' E 005°22'0 0.0
2019-Apr-19 10:21N 43°19' E 005°22'0 0.0
2019-Apr-19 09:51N 43°19' E 005°22'0 0.0
2019-Apr-19 09:09N 43°19' E 005°22'0 0.0
2019-Apr-19 06:27N 43°19' E 005°22'0 0.0
2019-Apr-19 05:57N 43°19' E 005°22'0 0.0
2019-Apr-19 05:27N 43°19' E 005°22'0 0.0
2019-Apr-19 04:58N 43°19' E 005°22'0 0.7
2019-Apr-19 04:29N 43°18' E 005°22'510.4
2019-Apr-19 04:00N 43°14' E 005°18'6816.9
2019-Apr-19 00:00N 42°37' E 006°36'1116.5
2019-Apr-18 23:21N 42°32' E 006°49'616.6
2019-Apr-18 22:58N 42°29' E 006°56'1717.3
2019-Apr-18 21:59N 42°21' E 007°17'5016.9
2019-Apr-18 19:02N 41°56' E 008°15'116.5
2019-Apr-18 18:57N 41°56' E 008°16'1516.5
2019-Apr-18 18:04N 41°50' E 008°34'116.8
2019-Apr-18 18:00N 41°50' E 008°36'9 0.7
2019-Apr-18 05:58N 41°56' E 008°45'0 0.0
2019-Apr-18 04:56N 41°56' E 008°45'0 0.0
2019-Apr-18 04:28N 41°56' E 008°45'4 7.2
2019-Apr-18 03:56N 41°52' E 008°42'716.6
2019-Apr-18 03:30N 41°49' E 008°33'816.7
2019-Apr-18 03:00N 41°53' E 008°23'817.0
2019-Apr-18 02:30N 41°57' E 008°13'1017.4
2019-Apr-18 01:57N 42°02' E 008°02'817.2
2019-Apr-18 01:30N 42°05' E 007°53'917.8
2019-Apr-18 01:00N 42°10' E 007°42'917.6
2019-Apr-18 00:30N 42°14' E 007°32'1217.5
2019-Apr-17 23:48N 42°20' E 007°17'10318.0
2019-Apr-17 18:05N 43°14' E 005°19'413.9
2019-Apr-17 17:50N 43°18' E 005°21'1 0.1
2019-Apr-17 04:42N 43°19' E 005°22'0 0.6
2019-Apr-17 04:30N 43°19' E 005°22'610.6
2019-Apr-17 03:59N 43°14' E 005°18'168 6.9
2019-Apr-16 03:35N 41°49' E 008°35'1217.0
2019-Apr-16 02:53N 41°54' E 008°20'2117.3
2019-Apr-16 01:41N 42°04' E 007°56'13617.6
2019-Apr-15 17:58N 43°18' E 005°21'1 0.9
2019-Apr-15 16:35N 43°19' E 005°22'  
Track history (hours):
 
Tides and Currents Weather Stations Pressure Air Temp Water Temp Dewpoint Dewpoint Depression Visibility Wind Speed Wind Dir Waves Ship Positions

Girolata

Last reported at 2019-Apr-25 08:34 UTC. Time now 2019-Apr-25 09:48 UTC.
Position N 43°19' E 005°22'.

Length 177 m; beam 27 m.

Type: Passenger vessel. MMSI: 226245000.

Date/timePositionNaut miles runAvg speedWind from/ knotsBaromVisibWave heightAir tempDewpointWater temp
2019-Apr-25 08:34N 43°19' E 005°22'0 0.0
2019-Apr-25 08:22N 43°19' E 005°22'0 0.0
2019-Apr-25 07:10N 43°19' E 005°22'0 0.0
2019-Apr-25 06:52N 43°19' E 005°22'0 0.0
2019-Apr-25 06:22N 43°19' E 005°22'0 0.0
2019-Apr-25 05:52N 43°19' E 005°22'0 0.0
2019-Apr-25 05:22N 43°19' E 005°22'0 0.0
2019-Apr-25 05:00N 43°19' E 005°22'1 1.7
2019-Apr-25 04:30N 43°18' E 005°21'611.0
2019-Apr-25 04:00N 43°13' E 005°18'10116.4
2019-Apr-24 21:52N 42°22' E 007°16'817.3
2019-Apr-24 21:22N 42°18' E 007°26'616.7
2019-Apr-24 21:00N 42°14' E 007°33'816.8
2019-Apr-24 20:31N 42°10' E 007°43'1116.8
2019-Apr-24 19:53N 42°05' E 007°55'616.5
2019-Apr-24 19:31N 42°02' E 008°02'816.8
2019-Apr-24 19:00N 41°58' E 008°12'816.1
2019-Apr-24 18:30N 41°54' E 008°22'1116.3
2019-Apr-24 17:51N 41°50' E 008°35'166 7.0
2019-Apr-23 18:02N 43°12' E 005°19'117.2
2019-Apr-23 18:00N 43°13' E 005°18'611.7
2019-Apr-23 17:30N 43°18' E 005°22'0 0.0
2019-Apr-23 05:17N 43°19' E 005°22'1 3.1
2019-Apr-23 05:00N 43°18' E 005°21'611.0
2019-Apr-23 04:30N 43°13' E 005°18'169 7.1
2019-Apr-22 04:49N 41°50' E 008°38'515.5
2019-Apr-22 04:30N 41°50' E 008°32'815.5
2019-Apr-22 04:00N 41°53' E 008°22'815.6
2019-Apr-22 03:30N 41°57' E 008°13'815.7
2019-Apr-22 03:00N 42°01' E 008°04'7415.4
2019-Apr-21 22:11N 42°37' E 006°36'6715.1
2019-Apr-21 17:44N 43°12' E 005°18'415.2
2019-Apr-21 17:30N 43°15' E 005°19'4 3.4
2019-Apr-21 16:19N 43°19' E 005°22'0 0.0
2019-Apr-21 15:19N 43°19' E 005°22'0 0.0
2019-Apr-21 14:16N 43°19' E 005°22'0 0.0
2019-Apr-21 13:19N 43°19' E 005°22'0 0.0
2019-Apr-21 09:37N 43°19' E 005°22'0 0.0
2019-Apr-21 07:55N 43°19' E 005°22'0 0.0
2019-Apr-21 07:13N 43°19' E 005°22'0 0.0
2019-Apr-21 05:55N 43°19' E 005°22'0 0.2
2019-Apr-21 05:31N 43°19' E 005°22'4 7.6
2019-Apr-21 05:00N 43°15' E 005°19'9415.2
2019-Apr-20 22:49N 42°26' E 007°08'514.9
2019-Apr-20 22:31N 42°24' E 007°13'814.7
2019-Apr-20 21:59N 42°20' E 007°23'915.0
2019-Apr-20 21:21N 42°16' E 007°34'515.0
2019-Apr-20 21:00N 42°13' E 007°40'1214.7
2019-Apr-20 20:10N 42°07' E 007°54'214.8
2019-Apr-20 20:01N 42°06' E 007°57'814.6
2019-Apr-20 19:29N 42°02' E 008°06'1614.8
2019-Apr-20 18:24N 41°53' E 008°24'615.0
2019-Apr-20 18:01N 41°50' E 008°31'12 0.9
2019-Apr-20 04:16N 41°55' E 008°45'410.7
2019-Apr-20 03:53N 41°52' E 008°42'615.0
2019-Apr-20 03:30N 41°49' E 008°35'816.1
2019-Apr-20 03:00N 41°52' E 008°25'917.2
2019-Apr-20 02:30N 41°56' E 008°15'917.3
2019-Apr-20 02:00N 42°01' E 008°05'1316.9
2019-Apr-20 01:15N 42°06' E 007°49'1517.1
2019-Apr-20 00:20N 42°13' E 007°31'1016.8
2019-Apr-19 23:46N 42°17' E 007°19'3518.6
2019-Apr-19 21:54N 42°32' E 006°37'7018.2
2019-Apr-19 18:04N 43°12' E 005°19'114.7
2019-Apr-19 18:00N 43°13' E 005°19'510.9
2019-Apr-19 17:30N 43°18' E 005°22'0 0.4
2019-Apr-19 16:27N 43°19' E 005°22'0 0.0
2019-Apr-19 15:57N 43°19' E 005°22'0 0.0
2019-Apr-19 15:15N 43°19' E 005°22'0 0.0
2019-Apr-19 14:33N 43°19' E 005°22'0 0.0
2019-Apr-19 14:15N 43°19' E 005°22'0 0.0
2019-Apr-19 13:57N 43°19' E 005°22'0 0.0
2019-Apr-19 13:03N 43°19' E 005°22'0 0.0
2019-Apr-19 12:33N 43°19' E 005°22'0 0.0
2019-Apr-19 11:51N 43°19' E 005°22'0 0.0
2019-Apr-19 10:51N 43°19' E 005°22'0 0.0
2019-Apr-19 10:21N 43°19' E 005°22'0 0.0
2019-Apr-19 09:51N 43°19' E 005°22'0 0.0
2019-Apr-19 09:09N 43°19' E 005°22'0 0.0
2019-Apr-19 06:27N 43°19' E 005°22'0 0.0
2019-Apr-19 05:57N 43°19' E 005°22'0 0.0
2019-Apr-19 05:27N 43°19' E 005°22'0 0.0
2019-Apr-19 04:58N 43°19' E 005°22'0 0.7
2019-Apr-19 04:29N 43°18' E 005°22'510.4
2019-Apr-19 04:00N 43°14' E 005°18'6816.9
2019-Apr-19 00:00N 42°37' E 006°36'1116.5
2019-Apr-18 23:21N 42°32' E 006°49'616.6
2019-Apr-18 22:58N 42°29' E 006°56'1717.3
2019-Apr-18 21:59N 42°21' E 007°17'5016.9
2019-Apr-18 19:02N 41°56' E 008°15'116.5
2019-Apr-18 18:57N 41°56' E 008°16'1516.5
2019-Apr-18 18:04N 41°50' E 008°34'116.8
2019-Apr-18 18:00N 41°50' E 008°36'9 0.7
2019-Apr-18 05:58N 41°56' E 008°45'0 0.0
2019-Apr-18 04:56N 41°56' E 008°45'0 0.0
2019-Apr-18 04:28N 41°56' E 008°45'4 7.2
2019-Apr-18 03:56N 41°52' E 008°42'716.6
2019-Apr-18 03:30N 41°49' E 008°33'816.7
2019-Apr-18 03:00N 41°53' E 008°23'817.0
2019-Apr-18 02:30N 41°57' E 008°13'1017.4
2019-Apr-18 01:57N 42°02' E 008°02'817.2
2019-Apr-18 01:30N 42°05' E 007°53'917.8
2019-Apr-18 01:00N 42°10' E 007°42'917.6
2019-Apr-18 00:30N 42°14' E 007°32'1217.5
2019-Apr-17 23:48N 42°20' E 007°17'10318.0
2019-Apr-17 18:05N 43°14' E 005°19'413.9
2019-Apr-17 17:50N 43°18' E 005°21'1 0.1
2019-Apr-17 04:42N 43°19' E 005°22'0 0.6
2019-Apr-17 04:30N 43°19' E 005°22'610.6
2019-Apr-17 03:59N 43°14' E 005°18'168 6.9
2019-Apr-16 03:35N 41°49' E 008°35'1217.0
2019-Apr-16 02:53N 41°54' E 008°20'2117.3
2019-Apr-16 01:41N 42°04' E 007°56'13617.6
2019-Apr-15 17:58N 43°18' E 005°21'1 0.9
2019-Apr-15 16:35N 43°19' E 005°22'  

Dump ship's entire track history